sensor_id;sensor_type;location;lat;lon;timestamp;temperature;humidity
3564;DHT22;1796;52.388;13.096;2023-04-15T00:01:57;7.40;99.90
3564;DHT22;1796;52.388;13.096;2023-04-15T00:04:24;7.40;99.90
3564;DHT22;1796;52.388;13.096;2023-04-15T00:06:52;7.40;99.90
3564;DHT22;1796;52.388;13.096;2023-04-15T00:09:20;7.40;99.90
3564;DHT22;1796;52.388;13.096;2023-04-15T00:11:47;7.40;99.90
3564;DHT22;1796;52.388;13.096;2023-04-15T00:14:15;7.40;99.90
3564;DHT22;1796;52.388;13.096;2023-04-15T00:16:42;7.50;99.90
3564;DHT22;1796;52.388;13.096;2023-04-15T00:19:09;7.40;99.90
3564;DHT22;1796;52.388;13.096;2023-04-15T00:21:36;7.40;99.90
3564;DHT22;1796;52.388;13.096;2023-04-15T00:24:03;7.50;99.90
3564;DHT22;1796;52.388;13.096;2023-04-15T00:26:32;7.50;99.90
3564;DHT22;1796;52.388;13.096;2023-04-15T00:29:00;7.50;99.90
3564;DHT22;1796;52.388;13.096;2023-04-15T00:31:27;7.50;99.90
3564;DHT22;1796;52.388;13.096;2023-04-15T00:33:55;7.50;99.90
3564;DHT22;1796;52.388;13.096;2023-04-15T00:36:22;7.60;99.90
3564;DHT22;1796;52.388;13.096;2023-04-15T00:38:49;7.50;99.90
3564;DHT22;1796;52.388;13.096;2023-04-15T00:41:16;7.50;99.90
3564;DHT22;1796;52.388;13.096;2023-04-15T00:43:45;7.50;99.90
3564;DHT22;1796;52.388;13.096;2023-04-15T00:46:13;7.60;99.90
3564;DHT22;1796;52.388;13.096;2023-04-15T00:48:41;7.60;99.90
3564;DHT22;1796;52.388;13.096;2023-04-15T00:51:15;7.60;99.90
3564;DHT22;1796;52.388;13.096;2023-04-15T00:53:42;7.60;99.90
3564;DHT22;1796;52.388;13.096;2023-04-15T00:56:09;7.70;99.90
3564;DHT22;1796;52.388;13.096;2023-04-15T00:58:36;7.70;99.90
3564;DHT22;1796;52.388;13.096;2023-04-15T01:01:04;7.70;99.90
3564;DHT22;1796;52.388;13.096;2023-04-15T01:03:31;7.70;99.90
3564;DHT22;1796;52.388;13.096;2023-04-15T01:05:59;7.70;99.90
3564;DHT22;1796;52.388;13.096;2023-04-15T01:08:27;7.60;99.90
3564;DHT22;1796;52.388;13.096;2023-04-15T01:10:54;7.70;99.90
3564;DHT22;1796;52.388;13.096;2023-04-15T01:13:22;7.70;99.90
3564;DHT22;1796;52.388;13.096;2023-04-15T01:15:49;7.70;99.90
3564;DHT22;1796;52.388;13.096;2023-04-15T01:18:18;7.70;99.90
3564;DHT22;1796;52.388;13.096;2023-04-15T01:20:45;7.70;99.90
3564;DHT22;1796;52.388;13.096;2023-04-15T01:23:12;7.70;99.90
3564;DHT22;1796;52.388;13.096;2023-04-15T01:25:42;7.70;99.90
3564;DHT22;1796;52.388;13.096;2023-04-15T01:28:09;7.70;99.90
3564;DHT22;1796;52.388;13.096;2023-04-15T01:30:36;7.70;99.90
3564;DHT22;1796;52.388;13.096;2023-04-15T01:33:04;7.70;99.90
3564;DHT22;1796;52.388;13.096;2023-04-15T01:35:31;7.70;99.90
3564;DHT22;1796;52.388;13.096;2023-04-15T01:38:02;7.70;99.90
3564;DHT22;1796;52.388;13.096;2023-04-15T01:40:30;7.80;99.90
3564;DHT22;1796;52.388;13.096;2023-04-15T01:42:59;7.80;99.90
3564;DHT22;1796;52.388;13.096;2023-04-15T01:45:26;7.80;99.90
3564;DHT22;1796;52.388;13.096;2023-04-15T01:47:52;7.80;99.90
3564;DHT22;1796;52.388;13.096;2023-04-15T01:50:20;7.80;99.90
3564;DHT22;1796;52.388;13.096;2023-04-15T01:52:47;7.70;99.90
3564;DHT22;1796;52.388;13.096;2023-04-15T01:55:14;7.70;99.90
3564;DHT22;1796;52.388;13.096;2023-04-15T01:57:41;7.80;99.90
3564;DHT22;1796;52.388;13.096;2023-04-15T02:00:10;7.80;99.90
3564;DHT22;1796;52.388;13.096;2023-04-15T02:02:37;7.70;99.90
3564;DHT22;1796;52.388;13.096;2023-04-15T02:05:04;7.80;99.90
3564;DHT22;1796;52.388;13.096;2023-04-15T02:07:31;7.80;99.90
3564;DHT22;1796;52.388;13.096;2023-04-15T02:09:58;7.80;99.90
3564;DHT22;1796;52.388;13.096;2023-04-15T02:12:25;7.80;99.90
3564;DHT22;1796;52.388;13.096;2023-04-15T02:14:52;7.80;99.90
3564;DHT22;1796;52.388;13.096;2023-04-15T02:17:21;7.70;99.90
3564;DHT22;1796;52.388;13.096;2023-04-15T02:19:48;7.80;99.90
3564;DHT22;1796;52.388;13.096;2023-04-15T02:22:15;7.90;99.90
3564;DHT22;1796;52.388;13.096;2023-04-15T02:24:43;7.70;99.90
3564;DHT22;1796;52.388;13.096;2023-04-15T02:27:12;7.70;99.90
3564;DHT22;1796;52.388;13.096;2023-04-15T02:29:40;7.80;99.90
3564;DHT22;1796;52.388;13.096;2023-04-15T02:32:08;7.80;99.90
3564;DHT22;1796;52.388;13.096;2023-04-15T02:34:37;7.70;99.90
3564;DHT22;1796;52.388;13.096;2023-04-15T02:37:05;7.70;99.90
3564;DHT22;1796;52.388;13.096;2023-04-15T02:39:32;7.80;99.90
3564;DHT22;1796;52.388;13.096;2023-04-15T02:42:00;7.80;99.90
3564;DHT22;1796;52.388;13.096;2023-04-15T02:44:27;7.80;99.90
3564;DHT22;1796;52.388;13.096;2023-04-15T02:46:54;7.70;99.90
3564;DHT22;1796;52.388;13.096;2023-04-15T02:49:21;7.80;99.90
3564;DHT22;1796;52.388;13.096;2023-04-15T02:51:49;7.80;99.90
3564;DHT22;1796;52.388;13.096;2023-04-15T02:54:16;7.80;99.90
3564;DHT22;1796;52.388;13.096;2023-04-15T02:56:43;7.80;99.90
3564;DHT22;1796;52.388;13.096;2023-04-15T02:59:11;7.80;99.90
3564;DHT22;1796;52.388;13.096;2023-04-15T03:01:38;7.70;99.90
3564;DHT22;1796;52.388;13.096;2023-04-15T03:04:05;7.70;99.90
3564;DHT22;1796;52.388;13.096;2023-04-15T03:06:33;7.70;99.90
3564;DHT22;1796;52.388;13.096;2023-04-15T03:09:01;7.70;99.90
3564;DHT22;1796;52.388;13.096;2023-04-15T03:11:28;7.70;99.90
3564;DHT22;1796;52.388;13.096;2023-04-15T03:13:56;7.70;99.90
3564;DHT22;1796;52.388;13.096;2023-04-15T03:16:23;7.70;99.90
3564;DHT22;1796;52.388;13.096;2023-04-15T03:18:50;7.70;99.90
3564;DHT22;1796;52.388;13.096;2023-04-15T03:21:17;7.70;99.90
3564;DHT22;1796;52.388;13.096;2023-04-15T03:23:44;7.80;99.90
3564;DHT22;1796;52.388;13.096;2023-04-15T03:26:26;7.80;99.90
3564;DHT22;1796;52.388;13.096;2023-04-15T03:28:53;7.80;99.90
3564;DHT22;1796;52.388;13.096;2023-04-15T03:31:20;7.80;99.90
3564;DHT22;1796;52.388;13.096;2023-04-15T03:33:47;7.80;99.90
3564;DHT22;1796;52.388;13.096;2023-04-15T03:36:15;7.80;99.90
3564;DHT22;1796;52.388;13.096;2023-04-15T03:38:42;7.90;99.90
3564;DHT22;1796;52.388;13.096;2023-04-15T03:41:09;7.90;99.90
3564;DHT22;1796;52.388;13.096;2023-04-15T03:43:37;7.80;99.90
3564;DHT22;1796;52.388;13.096;2023-04-15T03:46:04;7.70;99.90
3564;DHT22;1796;52.388;13.096;2023-04-15T03:48:31;7.80;99.90
3564;DHT22;1796;52.388;13.096;2023-04-15T03:50:58;7.90;99.90
3564;DHT22;1796;52.388;13.096;2023-04-15T03:53:25;7.80;99.90
3564;DHT22;1796;52.388;13.096;2023-04-15T03:55:52;7.90;99.90
3564;DHT22;1796;52.388;13.096;2023-04-15T03:58:19;7.80;99.90
3564;DHT22;1796;52.388;13.096;2023-04-15T04:00:47;7.80;99.90
3564;DHT22;1796;52.388;13.096;2023-04-15T04:03:14;7.90;99.90
3564;DHT22;1796;52.388;13.096;2023-04-15T04:05:41;7.90;99.90
3564;DHT22;1796;52.388;13.096;2023-04-15T04:08:09;7.70;99.90
3564;DHT22;1796;52.388;13.096;2023-04-15T04:10:38;7.90;99.90
3564;DHT22;1796;52.388;13.096;2023-04-15T04:13:05;7.90;99.90
3564;DHT22;1796;52.388;13.096;2023-04-15T04:15:32;7.90;99.90
3564;DHT22;1796;52.388;13.096;2023-04-15T04:18:00;7.90;99.90
3564;DHT22;1796;52.388;13.096;2023-04-15T04:20:27;8.00;99.90
3564;DHT22;1796;52.388;13.096;2023-04-15T04:22:56;7.90;99.90
3564;DHT22;1796;52.388;13.096;2023-04-15T04:25:23;8.00;99.90
3564;DHT22;1796;52.388;13.096;2023-04-15T04:27:50;7.90;99.90
3564;DHT22;1796;52.388;13.096;2023-04-15T04:30:17;8.00;99.90
3564;DHT22;1796;52.388;13.096;2023-04-15T04:32:45;8.00;99.90
3564;DHT22;1796;52.388;13.096;2023-04-15T04:35:13;8.00;99.90
3564;DHT22;1796;52.388;13.096;2023-04-15T04:37:40;8.00;99.90
3564;DHT22;1796;52.388;13.096;2023-04-15T04:40:08;8.00;99.90
3564;DHT22;1796;52.388;13.096;2023-04-15T04:42:35;8.00;99.90
3564;DHT22;1796;52.388;13.096;2023-04-15T04:45:02;8.00;99.90
3564;DHT22;1796;52.388;13.096;2023-04-15T04:47:29;8.00;99.90
3564;DHT22;1796;52.388;13.096;2023-04-15T04:49:56;8.10;99.90
3564;DHT22;1796;52.388;13.096;2023-04-15T04:52:24;8.10;99.90
3564;DHT22;1796;52.388;13.096;2023-04-15T04:54:51;8.10;99.90
3564;DHT22;1796;52.388;13.096;2023-04-15T04:57:18;8.10;99.90
3564;DHT22;1796;52.388;13.096;2023-04-15T04:59:45;8.20;99.90
3564;DHT22;1796;52.388;13.096;2023-04-15T05:02:12;8.20;99.90
3564;DHT22;1796;52.388;13.096;2023-04-15T05:04:39;8.20;99.90
3564;DHT22;1796;52.388;13.096;2023-04-15T05:07:06;8.20;99.90
3564;DHT22;1796;52.388;13.096;2023-04-15T05:09:34;8.20;99.90
3564;DHT22;1796;52.388;13.096;2023-04-15T05:12:01;8.20;99.90
3564;DHT22;1796;52.388;13.096;2023-04-15T05:14:29;8.30;99.90
3564;DHT22;1796;52.388;13.096;2023-04-15T05:16:56;8.30;99.90
3564;DHT22;1796;52.388;13.096;2023-04-15T05:19:23;8.30;99.90
3564;DHT22;1796;52.388;13.096;2023-04-15T05:21:50;8.40;99.90
3564;DHT22;1796;52.388;13.096;2023-04-15T05:24:17;8.30;99.90
3564;DHT22;1796;52.388;13.096;2023-04-15T05:26:45;8.30;99.90
3564;DHT22;1796;52.388;13.096;2023-04-15T05:29:12;8.40;99.90
3564;DHT22;1796;52.388;13.096;2023-04-15T05:31:39;8.40;99.90
3564;DHT22;1796;52.388;13.096;2023-04-15T05:34:07;8.40;99.90
3564;DHT22;1796;52.388;13.096;2023-04-15T05:36:33;8.40;99.90
3564;DHT22;1796;52.388;13.096;2023-04-15T05:39:00;8.50;99.90
3564;DHT22;1796;52.388;13.096;2023-04-15T05:41:27;8.40;99.90
3564;DHT22;1796;52.388;13.096;2023-04-15T05:43:55;8.40;99.90
3564;DHT22;1796;52.388;13.096;2023-04-15T05:46:22;8.50;99.90
3564;DHT22;1796;52.388;13.096;2023-04-15T05:48:49;8.50;99.90
3564;DHT22;1796;52.388;13.096;2023-04-15T05:51:16;8.50;99.90
3564;DHT22;1796;52.388;13.096;2023-04-15T05:53:43;8.50;99.90
3564;DHT22;1796;52.388;13.096;2023-04-15T05:56:10;8.50;99.90
3564;DHT22;1796;52.388;13.096;2023-04-15T05:58:37;8.60;99.90
3564;DHT22;1796;52.388;13.096;2023-04-15T06:01:05;8.70;99.90
3564;DHT22;1796;52.388;13.096;2023-04-15T06:03:32;8.70;99.90
3564;DHT22;1796;52.388;13.096;2023-04-15T06:05:59;8.80;99.90
3564;DHT22;1796;52.388;13.096;2023-04-15T06:08:27;8.90;99.90
3564;DHT22;1796;52.388;13.096;2023-04-15T06:10:54;8.90;99.90
3564;DHT22;1796;52.388;13.096;2023-04-15T06:13:21;9.00;99.90
3564;DHT22;1796;52.388;13.096;2023-04-15T06:15:48;9.10;99.90
3564;DHT22;1796;52.388;13.096;2023-04-15T06:18:16;9.20;99.90
3564;DHT22;1796;52.388;13.096;2023-04-15T06:20:43;9.20;99.90
3564;DHT22;1796;52.388;13.096;2023-04-15T06:23:10;9.20;99.90
3564;DHT22;1796;52.388;13.096;2023-04-15T06:25:37;9.30;99.90
3564;DHT22;1796;52.388;13.096;2023-04-15T06:28:04;9.40;99.90
3564;DHT22;1796;52.388;13.096;2023-04-15T06:30:31;9.40;99.90
3564;DHT22;1796;52.388;13.096;2023-04-15T06:32:58;9.40;99.90
3564;DHT22;1796;52.388;13.096;2023-04-15T06:37:54;9.50;99.90
3564;DHT22;1796;52.388;13.096;2023-04-15T06:40:21;9.70;99.90
3564;DHT22;1796;52.388;13.096;2023-04-15T06:42:48;9.70;99.90
3564;DHT22;1796;52.388;13.096;2023-04-15T06:45:15;9.90;99.90
3564;DHT22;1796;52.388;13.096;2023-04-15T06:47:42;10.00;99.90
3564;DHT22;1796;52.388;13.096;2023-04-15T06:50:09;10.20;99.90
3564;DHT22;1796;52.388;13.096;2023-04-15T06:52:37;10.40;99.90
3564;DHT22;1796;52.388;13.096;2023-04-15T06:55:07;10.70;99.90
3564;DHT22;1796;52.388;13.096;2023-04-15T06:57:34;10.70;99.90
3564;DHT22;1796;52.388;13.096;2023-04-15T07:00:01;10.80;99.90
3564;DHT22;1796;52.388;13.096;2023-04-15T07:02:30;10.70;99.90
3564;DHT22;1796;52.388;13.096;2023-04-15T07:04:57;10.80;99.90
3564;DHT22;1796;52.388;13.096;2023-04-15T07:07:24;10.90;99.90
3564;DHT22;1796;52.388;13.096;2023-04-15T07:09:51;10.70;99.90
3564;DHT22;1796;52.388;13.096;2023-04-15T07:12:19;10.90;99.90
3564;DHT22;1796;52.388;13.096;2023-04-15T07:14:48;11.40;99.90
3564;DHT22;1796;52.388;13.096;2023-04-15T07:17:15;11.50;99.90
3564;DHT22;1796;52.388;13.096;2023-04-15T07:19:42;11.50;99.90
3564;DHT22;1796;52.388;13.096;2023-04-15T07:22:09;11.70;99.90
3564;DHT22;1796;52.388;13.096;2023-04-15T07:24:36;11.60;99.90
3564;DHT22;1796;52.388;13.096;2023-04-15T07:27:03;11.40;99.90
3564;DHT22;1796;52.388;13.096;2023-04-15T07:29:31;11.30;99.90
3564;DHT22;1796;52.388;13.096;2023-04-15T07:31:58;11.30;99.90
3564;DHT22;1796;52.388;13.096;2023-04-15T07:34:25;11.30;99.90
3564;DHT22;1796;52.388;13.096;2023-04-15T07:36:52;11.30;99.90
3564;DHT22;1796;52.388;13.096;2023-04-15T07:39:19;11.00;99.90
3564;DHT22;1796;52.388;13.096;2023-04-15T07:41:45;10.90;99.90
3564;DHT22;1796;52.388;13.096;2023-04-15T07:44:13;10.90;99.90
3564;DHT22;1796;52.388;13.096;2023-04-15T07:46:41;10.70;99.90
3564;DHT22;1796;52.388;13.096;2023-04-15T07:49:08;10.90;99.90
3564;DHT22;1796;52.388;13.096;2023-04-15T07:51:35;10.90;99.90
3564;DHT22;1796;52.388;13.096;2023-04-15T07:54:03;10.80;99.90
3564;DHT22;1796;52.388;13.096;2023-04-15T07:56:29;10.70;99.90
3564;DHT22;1796;52.388;13.096;2023-04-15T07:58:57;10.80;99.90
3564;DHT22;1796;52.388;13.096;2023-04-15T08:01:26;10.70;99.90
3564;DHT22;1796;52.388;13.096;2023-04-15T08:03:54;10.70;99.90
3564;DHT22;1796;52.388;13.096;2023-04-15T08:06:22;10.60;99.90
3564;DHT22;1796;52.388;13.096;2023-04-15T08:08:49;10.50;99.90
3564;DHT22;1796;52.388;13.096;2023-04-15T08:11:16;10.50;99.90
3564;DHT22;1796;52.388;13.096;2023-04-15T08:13:43;10.40;99.90
3564;DHT22;1796;52.388;13.096;2023-04-15T08:16:18;10.40;99.90
3564;DHT22;1796;52.388;13.096;2023-04-15T08:18:45;10.50;99.90
3564;DHT22;1796;52.388;13.096;2023-04-15T08:21:17;10.50;99.90
3564;DHT22;1796;52.388;13.096;2023-04-15T08:23:46;10.40;99.90
3564;DHT22;1796;52.388;13.096;2023-04-15T08:26:13;10.40;99.90
3564;DHT22;1796;52.388;13.096;2023-04-15T08:28:41;10.30;99.90
3564;DHT22;1796;52.388;13.096;2023-04-15T08:31:09;10.30;99.90
3564;DHT22;1796;52.388;13.096;2023-04-15T08:33:35;10.20;99.90
3564;DHT22;1796;52.388;13.096;2023-04-15T08:36:02;10.30;99.90
3564;DHT22;1796;52.388;13.096;2023-04-15T08:38:31;10.20;99.90
3564;DHT22;1796;52.388;13.096;2023-04-15T08:41:01;10.20;99.90
3564;DHT22;1796;52.388;13.096;2023-04-15T08:43:34;10.30;99.90
3564;DHT22;1796;52.388;13.096;2023-04-15T08:46:04;10.20;99.90
3564;DHT22;1796;52.388;13.096;2023-04-15T08:48:32;10.20;99.90
3564;DHT22;1796;52.388;13.096;2023-04-15T08:51:00;10.20;99.90
3564;DHT22;1796;52.388;13.096;2023-04-15T08:53:28;10.20;99.90
3564;DHT22;1796;52.388;13.096;2023-04-15T08:55:57;10.20;99.90
3564;DHT22;1796;52.388;13.096;2023-04-15T08:58:26;10.20;99.90
3564;DHT22;1796;52.388;13.096;2023-04-15T09:00:55;10.10;99.90
3564;DHT22;1796;52.388;13.096;2023-04-15T09:03:22;10.10;99.90
3564;DHT22;1796;52.388;13.096;2023-04-15T09:05:52;10.20;99.90
3564;DHT22;1796;52.388;13.096;2023-04-15T09:08:21;10.20;99.90
3564;DHT22;1796;52.388;13.096;2023-04-15T09:10:49;10.10;99.90
3564;DHT22;1796;52.388;13.096;2023-04-15T09:13:18;10.10;99.90
3564;DHT22;1796;52.388;13.096;2023-04-15T09:15:45;10.10;99.90
3564;DHT22;1796;52.388;13.096;2023-04-15T09:18:12;10.10;99.90
3564;DHT22;1796;52.388;13.096;2023-04-15T09:20:41;10.10;99.90
3564;DHT22;1796;52.388;13.096;2023-04-15T09:23:12;10.20;99.90
3564;DHT22;1796;52.388;13.096;2023-04-15T09:25:39;10.20;99.90
3564;DHT22;1796;52.388;13.096;2023-04-15T09:28:08;10.10;99.90
3564;DHT22;1796;52.388;13.096;2023-04-15T09:30:36;10.10;99.90
3564;DHT22;1796;52.388;13.096;2023-04-15T09:33:04;10.00;99.90
3564;DHT22;1796;52.388;13.096;2023-04-15T09:35:33;10.00;99.90
3564;DHT22;1796;52.388;13.096;2023-04-15T09:38:02;10.10;99.90
3564;DHT22;1796;52.388;13.096;2023-04-15T09:40:34;10.30;99.90
3564;DHT22;1796;52.388;13.096;2023-04-15T09:43:02;10.20;99.90
3564;DHT22;1796;52.388;13.096;2023-04-15T09:45:30;10.20;99.90
3564;DHT22;1796;52.388;13.096;2023-04-15T09:47:59;10.20;99.90
3564;DHT22;1796;52.388;13.096;2023-04-15T09:50:40;10.10;99.90
3564;DHT22;1796;52.388;13.096;2023-04-15T09:53:08;10.10;99.90
3564;DHT22;1796;52.388;13.096;2023-04-15T09:55:36;10.00;99.90
3564;DHT22;1796;52.388;13.096;2023-04-15T09:58:07;9.90;99.90
3564;DHT22;1796;52.388;13.096;2023-04-15T10:00:35;9.90;99.90
3564;DHT22;1796;52.388;13.096;2023-04-15T10:03:05;10.00;99.90
3564;DHT22;1796;52.388;13.096;2023-04-15T10:05:32;9.90;99.90
3564;DHT22;1796;52.388;13.096;2023-04-15T10:08:00;9.90;99.90
3564;DHT22;1796;52.388;13.096;2023-04-15T10:10:28;10.00;99.90
3564;DHT22;1796;52.388;13.096;2023-04-15T10:12:58;10.00;99.90
3564;DHT22;1796;52.388;13.096;2023-04-15T10:15:27;9.90;99.90
3564;DHT22;1796;52.388;13.096;2023-04-15T10:17:55;9.70;99.90
3564;DHT22;1796;52.388;13.096;2023-04-15T10:20:25;9.80;99.90
3564;DHT22;1796;52.388;13.096;2023-04-15T10:22:54;9.70;99.90
3564;DHT22;1796;52.388;13.096;2023-04-15T10:25:21;9.70;99.90
3564;DHT22;1796;52.388;13.096;2023-04-15T10:27:49;9.70;99.90
3564;DHT22;1796;52.388;13.096;2023-04-15T10:30:17;9.80;99.90
3564;DHT22;1796;52.388;13.096;2023-04-15T10:32:45;9.70;99.90
3564;DHT22;1796;52.388;13.096;2023-04-15T10:35:13;9.80;99.90
3564;DHT22;1796;52.388;13.096;2023-04-15T10:37:41;9.80;99.90
3564;DHT22;1796;52.388;13.096;2023-04-15T10:40:26;9.80;99.90
3564;DHT22;1796;52.388;13.096;2023-04-15T10:42:54;9.80;99.90
3564;DHT22;1796;52.388;13.096;2023-04-15T10:45:24;9.70;99.90
3564;DHT22;1796;52.388;13.096;2023-04-15T10:47:54;9.60;99.90
3564;DHT22;1796;52.388;13.096;2023-04-15T10:50:22;9.70;99.90
3564;DHT22;1796;52.388;13.096;2023-04-15T10:52:53;9.60;99.90
3564;DHT22;1796;52.388;13.096;2023-04-15T10:55:23;9.80;99.90
3564;DHT22;1796;52.388;13.096;2023-04-15T10:57:54;9.80;99.90
3564;DHT22;1796;52.388;13.096;2023-04-15T11:00:24;9.80;99.90
3564;DHT22;1796;52.388;13.096;2023-04-15T11:02:53;10.00;99.90
3564;DHT22;1796;52.388;13.096;2023-04-15T11:05:21;10.00;99.90
3564;DHT22;1796;52.388;13.096;2023-04-15T11:07:52;10.00;99.90
3564;DHT22;1796;52.388;13.096;2023-04-15T11:10:50;10.20;99.90
3564;DHT22;1796;52.388;13.096;2023-04-15T11:13:20;10.10;99.90
3564;DHT22;1796;52.388;13.096;2023-04-15T11:15:52;10.10;99.90
3564;DHT22;1796;52.388;13.096;2023-04-15T11:18:22;10.10;99.90
3564;DHT22;1796;52.388;13.096;2023-04-15T11:20:54;10.00;99.90
3564;DHT22;1796;52.388;13.096;2023-04-15T11:23:35;9.90;99.90
3564;DHT22;1796;52.388;13.096;2023-04-15T11:26:06;9.90;99.90
3564;DHT22;1796;52.388;13.096;2023-04-15T11:28:35;10.00;99.90
3564;DHT22;1796;52.388;13.096;2023-04-15T11:31:09;9.90;99.90
3564;DHT22;1796;52.388;13.096;2023-04-15T11:33:44;10.00;99.90
3564;DHT22;1796;52.388;13.096;2023-04-15T11:36:11;10.10;99.90
3564;DHT22;1796;52.388;13.096;2023-04-15T11:38:43;10.10;99.90
3564;DHT22;1796;52.388;13.096;2023-04-15T11:41:18;10.10;99.90
3564;DHT22;1796;52.388;13.096;2023-04-15T11:43:46;10.10;99.90
3564;DHT22;1796;52.388;13.096;2023-04-15T11:46:13;10.00;99.90
3564;DHT22;1796;52.388;13.096;2023-04-15T11:48:44;10.20;99.90
3564;DHT22;1796;52.388;13.096;2023-04-15T11:51:14;10.20;99.90
3564;DHT22;1796;52.388;13.096;2023-04-15T11:53:44;10.20;99.90
3564;DHT22;1796;52.388;13.096;2023-04-15T11:56:16;10.20;99.90
3564;DHT22;1796;52.388;13.096;2023-04-15T11:58:44;10.00;99.90
3564;DHT22;1796;52.388;13.096;2023-04-15T12:01:11;10.10;99.90
3564;DHT22;1796;52.388;13.096;2023-04-15T12:03:52;10.00;99.90
3564;DHT22;1796;52.388;13.096;2023-04-15T12:06:20;10.20;99.90
3564;DHT22;1796;52.388;13.096;2023-04-15T12:11:33;10.30;99.90
3564;DHT22;1796;52.388;13.096;2023-04-15T12:14:06;10.20;99.90
3564;DHT22;1796;52.388;13.096;2023-04-15T12:16:34;10.10;99.90
3564;DHT22;1796;52.388;13.096;2023-04-15T12:19:08;10.20;99.90
3564;DHT22;1796;52.388;13.096;2023-04-15T12:21:37;10.30;99.90
3564;DHT22;1796;52.388;13.096;2023-04-15T12:24:11;10.40;99.90
3564;DHT22;1796;52.388;13.096;2023-04-15T12:26:43;10.30;99.90
3564;DHT22;1796;52.388;13.096;2023-04-15T12:29:12;10.40;99.90
3564;DHT22;1796;52.388;13.096;2023-04-15T12:31:50;10.60;99.90
3564;DHT22;1796;52.388;13.096;2023-04-15T12:34:18;10.70;99.90
3564;DHT22;1796;52.388;13.096;2023-04-15T12:36:54;10.50;99.90
3564;DHT22;1796;52.388;13.096;2023-04-15T12:39:25;10.70;99.90
3564;DHT22;1796;52.388;13.096;2023-04-15T12:41:53;10.80;99.90
3564;DHT22;1796;52.388;13.096;2023-04-15T12:44:22;10.60;99.90
3564;DHT22;1796;52.388;13.096;2023-04-15T12:46:49;10.70;99.90
3564;DHT22;1796;52.388;13.096;2023-04-15T12:49:17;10.70;99.90
3564;DHT22;1796;52.388;13.096;2023-04-15T12:51:46;10.70;99.90
3564;DHT22;1796;52.388;13.096;2023-04-15T12:54:14;10.80;99.90
3564;DHT22;1796;52.388;13.096;2023-04-15T12:56:42;10.90;99.90
3564;DHT22;1796;52.388;13.096;2023-04-15T12:59:10;10.80;99.90
3564;DHT22;1796;52.388;13.096;2023-04-15T13:01:37;11.00;99.90
3564;DHT22;1796;52.388;13.096;2023-04-15T13:04:04;11.00;99.90
3564;DHT22;1796;52.388;13.096;2023-04-15T13:06:31;11.10;99.90
3564;DHT22;1796;52.388;13.096;2023-04-15T13:08:59;11.30;99.90
3564;DHT22;1796;52.388;13.096;2023-04-15T13:11:26;11.10;99.90
3564;DHT22;1796;52.388;13.096;2023-04-15T13:13:56;11.10;99.90
3564;DHT22;1796;52.388;13.096;2023-04-15T13:16:23;11.40;99.90
3564;DHT22;1796;52.388;13.096;2023-04-15T13:18:50;11.10;99.90
3564;DHT22;1796;52.388;13.096;2023-04-15T13:21:19;11.20;99.90
3564;DHT22;1796;52.388;13.096;2023-04-15T13:23:45;11.40;99.90
3564;DHT22;1796;52.388;13.096;2023-04-15T13:26:14;11.30;99.90
3564;DHT22;1796;52.388;13.096;2023-04-15T13:28:40;11.10;99.90
3564;DHT22;1796;52.388;13.096;2023-04-15T13:31:09;11.10;99.90
3564;DHT22;1796;52.388;13.096;2023-04-15T13:33:36;11.30;99.90
3564;DHT22;1796;52.388;13.096;2023-04-15T13:36:03;11.10;99.90
3564;DHT22;1796;52.388;13.096;2023-04-15T13:38:30;11.00;99.90
3564;DHT22;1796;52.388;13.096;2023-04-15T13:40:57;10.90;99.90
3564;DHT22;1796;52.388;13.096;2023-04-15T13:43:23;10.90;99.90
3564;DHT22;1796;52.388;13.096;2023-04-15T13:45:50;10.90;99.90
3564;DHT22;1796;52.388;13.096;2023-04-15T13:48:19;11.00;99.90
3564;DHT22;1796;52.388;13.096;2023-04-15T13:50:46;11.00;99.90
3564;DHT22;1796;52.388;13.096;2023-04-15T13:53:13;11.10;99.90
3564;DHT22;1796;52.388;13.096;2023-04-15T13:55:40;11.20;99.90
3564;DHT22;1796;52.388;13.096;2023-04-15T13:58:08;11.00;99.90
3564;DHT22;1796;52.388;13.096;2023-04-15T14:00:35;11.00;99.90
3564;DHT22;1796;52.388;13.096;2023-04-15T14:03:02;10.90;99.90
3564;DHT22;1796;52.388;13.096;2023-04-15T14:05:30;10.70;99.90
3564;DHT22;1796;52.388;13.096;2023-04-15T14:07:58;10.70;99.90
3564;DHT22;1796;52.388;13.096;2023-04-15T14:10:25;10.70;99.90
3564;DHT22;1796;52.388;13.096;2023-04-15T14:12:52;10.60;99.90
3564;DHT22;1796;52.388;13.096;2023-04-15T14:15:18;10.50;99.90
3564;DHT22;1796;52.388;13.096;2023-04-15T14:17:46;10.60;99.90
3564;DHT22;1796;52.388;13.096;2023-04-15T14:20:13;10.50;99.90
3564;DHT22;1796;52.388;13.096;2023-04-15T14:22:41;10.50;99.90
3564;DHT22;1796;52.388;13.096;2023-04-15T14:25:08;10.50;99.90
3564;DHT22;1796;52.388;13.096;2023-04-15T14:27:35;10.50;99.90
3564;DHT22;1796;52.388;13.096;2023-04-15T14:30:03;10.50;99.90
3564;DHT22;1796;52.388;13.096;2023-04-15T14:32:30;10.60;99.90
3564;DHT22;1796;52.388;13.096;2023-04-15T14:34:57;10.50;99.90
3564;DHT22;1796;52.388;13.096;2023-04-15T14:37:24;10.60;99.90
3564;DHT22;1796;52.388;13.096;2023-04-15T14:39:52;10.60;99.90
3564;DHT22;1796;52.388;13.096;2023-04-15T14:42:19;10.50;99.90
3564;DHT22;1796;52.388;13.096;2023-04-15T14:44:46;10.50;99.90
3564;DHT22;1796;52.388;13.096;2023-04-15T14:47:12;10.40;99.90
3564;DHT22;1796;52.388;13.096;2023-04-15T14:49:40;10.40;99.90
3564;DHT22;1796;52.388;13.096;2023-04-15T14:52:07;10.50;99.90
3564;DHT22;1796;52.388;13.096;2023-04-15T14:54:34;10.50;99.90
3564;DHT22;1796;52.388;13.096;2023-04-15T14:57:02;10.40;99.90
3564;DHT22;1796;52.388;13.096;2023-04-15T14:59:29;10.40;99.90
3564;DHT22;1796;52.388;13.096;2023-04-15T15:01:56;10.30;99.90
3564;DHT22;1796;52.388;13.096;2023-04-15T15:04:23;10.20;99.90
3564;DHT22;1796;52.388;13.096;2023-04-15T15:06:50;10.30;99.90
3564;DHT22;1796;52.388;13.096;2023-04-15T15:09:17;10.20;99.90
3564;DHT22;1796;52.388;13.096;2023-04-15T15:11:44;10.30;99.90
3564;DHT22;1796;52.388;13.096;2023-04-15T15:14:15;10.30;99.90
3564;DHT22;1796;52.388;13.096;2023-04-15T15:16:42;10.40;99.90
3564;DHT22;1796;52.388;13.096;2023-04-15T15:19:09;10.30;99.90
3564;DHT22;1796;52.388;13.096;2023-04-15T15:21:36;10.30;99.90
3564;DHT22;1796;52.388;13.096;2023-04-15T15:24:03;10.30;99.90
3564;DHT22;1796;52.388;13.096;2023-04-15T15:26:30;10.20;99.90
3564;DHT22;1796;52.388;13.096;2023-04-15T15:28:57;10.20;99.90
3564;DHT22;1796;52.388;13.096;2023-04-15T15:31:25;10.20;99.90
3564;DHT22;1796;52.388;13.096;2023-04-15T15:33:52;10.20;99.90
3564;DHT22;1796;52.388;13.096;2023-04-15T15:36:19;10.20;99.90
3564;DHT22;1796;52.388;13.096;2023-04-15T15:38:46;10.20;99.90
3564;DHT22;1796;52.388;13.096;2023-04-15T15:41:13;10.20;99.90
3564;DHT22;1796;52.388;13.096;2023-04-15T15:43:40;10.20;99.90
3564;DHT22;1796;52.388;13.096;2023-04-15T15:46:07;10.20;99.90
3564;DHT22;1796;52.388;13.096;2023-04-15T15:48:35;10.20;99.90
3564;DHT22;1796;52.388;13.096;2023-04-15T15:51:02;10.20;99.90
3564;DHT22;1796;52.388;13.096;2023-04-15T15:53:29;10.10;99.90
3564;DHT22;1796;52.388;13.096;2023-04-15T15:55:56;10.10;99.90
3564;DHT22;1796;52.388;13.096;2023-04-15T15:58:23;10.20;99.90
3564;DHT22;1796;52.388;13.096;2023-04-15T16:00:50;10.20;99.90
3564;DHT22;1796;52.388;13.096;2023-04-15T16:03:18;10.20;99.90
3564;DHT22;1796;52.388;13.096;2023-04-15T16:05:46;10.10;99.90